Time;durP1;ratioP1;P1;durP2;ratioP2;P2;SDS_P1;SDS_P2;PMS_P1;PMS_P2;Temp;Humidity;BMP_temperature;BMP_pressure;BME280_temperature;BME280_humidity;BME280_pressure;Samples;Min_cycle;Max_cycle;Signal;HPM_P1;HPM_P2
2023/12/09 00:00:40;;;;;;;35.23;16.60;;;;;;;-2.42;82.89;100795.91;5102971;28;20238;-66
2023/12/09 00:03:08;;;;;;;32.73;15.47;;;;;;;-2.44;83.07;100802.53;5102222;27;22511;-63
2023/12/09 00:05:36;;;;;;;39.03;17.87;;;;;;;-2.49;83.77;100802.28;5110447;27;20764;-65
2023/12/09 00:08:05;;;;;;;34.00;16.97;;;;;;;-2.44;83.70;100802.53;5119479;27;20291;-65
2023/12/09 00:10:33;;;;;;;35.60;17.47;;;;;;;-2.38;84.00;100805.38;5108380;27;20643;-64
2023/12/09 00:13:03;;;;;;;29.03;15.27;;;;;;;-2.36;83.68;100801.25;5116873;27;20203;-65
2023/12/09 00:15:32;;;;;;;30.77;16.40;;;;;;;-2.29;84.08;100789.84;5113106;27;20208;-66
2023/12/09 00:18:00;;;;;;;30.97;15.53;;;;;;;-2.25;83.35;100784.16;5120466;27;20278;-65
2023/12/09 00:20:29;;;;;;;27.63;14.83;;;;;;;-2.25;83.04;100784.16;5112662;28;20720;-64
2023/12/09 00:22:56;;;;;;;32.37;16.10;;;;;;;-2.26;83.85;100777.38;5125245;28;20650;-64
2023/12/09 00:25:25;;;;;;;32.93;15.90;;;;;;;-2.24;83.80;100775.81;5119726;28;20655;-67
2023/12/09 00:27:53;;;;;;;36.90;16.60;;;;;;;-2.19;84.15;100774.38;5097758;28;20223;-63
2023/12/09 00:30:22;;;;;;;37.80;17.17;;;;;;;-2.20;83.45;100781.09;5108101;28;20528;-63
2023/12/09 00:32:50;;;;;;;32.57;15.60;;;;;;;-2.29;83.36;100772.16;5110791;28;20211;-67
2023/12/09 00:35:18;;;;;;;29.80;15.83;;;;;;;-2.38;84.18;100766.66;5116298;28;20206;-64
2023/12/09 00:37:46;;;;;;;34.47;15.20;;;;;;;-2.44;84.00;100765.53;5113404;27;20199;-65
2023/12/09 00:40:14;;;;;;;32.93;15.60;;;;;;;-2.45;84.78;100773.91;5109561;28;20287;-63
2023/12/09 00:42:42;;;;;;;35.67;17.43;;;;;;;-2.41;85.09;100758.94;5112968;28;20211;-64
2023/12/09 00:45:10;;;;;;;33.80;16.77;;;;;;;-2.41;84.32;100776.59;5116903;28;20204;-64
2023/12/09 00:47:40;;;;;;;41.73;19.83;;;;;;;-2.41;84.92;100769.88;5118765;28;20751;-64
2023/12/09 00:50:08;;;;;;;42.37;20.83;;;;;;;-2.37;85.21;100773.44;5108475;27;20200;-63
2023/12/09 00:52:37;;;;;;;37.70;17.07;;;;;;;-2.38;84.29;100766.66;5120140;28;20575;-64
2023/12/09 00:55:06;;;;;;;44.23;20.53;;;;;;;-2.47;84.84;100767.94;5111221;28;20627;-64
2023/12/09 00:57:34;;;;;;;41.80;19.07;;;;;;;-2.56;84.57;100764.06;5109741;28;20203;-67
2023/12/09 01:00:04;;;;;;;39.37;17.73;;;;;;;-2.73;85.94;100764.00;5114402;27;20204;-64
2023/12/09 01:02:32;;;;;;;49.37;21.17;;;;;;;-2.85;86.24;100760.84;5123450;27;20742;-63
2023/12/09 01:05:01;;;;;;;46.13;19.63;;;;;;;-2.87;86.85;100759.91;5110461;27;20683;-62
2023/12/09 01:07:29;;;;;;;39.40;20.43;;;;;;;-2.85;87.42;100762.50;5113720;27;20207;-63
2023/12/09 01:09:57;;;;;;;41.00;20.27;;;;;;;-2.83;87.32;100755.91;5120422;27;20231;-65
2023/12/09 01:12:25;;;;;;;43.07;20.07;;;;;;;-2.86;87.65;100760.78;5117792;27;20249;-64
2023/12/09 01:14:53;;;;;;;41.90;17.27;;;;;;;-2.96;87.99;100762.78;5105325;27;20205;-63
2023/12/09 01:17:21;;;;;;;45.43;19.87;;;;;;;-2.98;88.07;100754.28;5110571;28;20231;-62
2023/12/09 01:19:49;;;;;;;44.97;19.63;;;;;;;-3.03;88.87;100758.19;5117353;27;20302;-64
2023/12/09 01:22:18;;;;;;;51.60;21.00;;;;;;;-3.01;89.39;100741.50;5117182;27;20230;-66
2023/12/09 01:24:46;;;;;;;46.30;21.60;;;;;;;-2.99;89.00;100734.03;5114309;28;20215;-64
2023/12/09 01:27:14;;;;;;;50.77;20.53;;;;;;;-2.93;89.49;100740.25;5114758;28;20195;-63
2023/12/09 01:29:42;;;;;;;47.50;20.00;;;;;;;-2.85;89.23;100738.16;5120026;27;20736;-65
2023/12/09 01:32:10;;;;;;;44.63;20.33;;;;;;;-2.80;88.72;100735.84;5113359;27;20196;-63
2023/12/09 01:34:39;;;;;;;53.47;21.57;;;;;;;-2.78;88.65;100736.81;5115287;27;20238;-62
2023/12/09 01:37:08;;;;;;;50.80;19.57;;;;;;;-2.78;88.77;100740.22;5113082;27;20199;-63
2023/12/09 01:39:40;;;;;;;49.30;19.27;;;;;;;-2.75;89.00;100739.50;5120201;27;20207;-64
2023/12/09 01:42:09;;;;;;;47.67;19.47;;;;;;;-2.72;88.92;100735.50;5113308;27;20682;-64
2023/12/09 01:44:37;;;;;;;49.00;19.70;;;;;;;-2.69;88.93;100735.66;5123867;27;20708;-65
2023/12/09 01:47:05;;;;;;;48.33;21.60;;;;;;;-2.72;88.14;100738.03;5117097;27;20260;-64
2023/12/09 01:49:34;;;;;;;38.67;18.57;;;;;;;-2.74;88.39;100729.50;5129801;27;20675;-65
2023/12/09 01:52:03;;;;;;;48.77;20.57;;;;;;;-2.74;88.48;100736.19;5107319;27;20246;-66
2023/12/09 01:54:31;;;;;;;47.73;20.03;;;;;;;-2.70;89.27;100738.09;5102065;27;20561;-64
2023/12/09 01:57:00;;;;;;;45.23;19.23;;;;;;;-2.62;89.10;100743.53;5112275;27;20211;-65
2023/12/09 01:59:28;;;;;;;42.77;18.80;;;;;;;-2.62;87.87;100746.06;5109236;27;20250;-65
2023/12/09 02:01:57;;;;;;;46.83;20.23;;;;;;;-2.74;88.27;100747.16;5120121;27;20203;-67
2023/12/09 02:04:25;;;;;;;43.47;19.57;;;;;;;-2.72;88.97;100750.63;5115051;27;20305;-63
2023/12/09 02:06:53;;;;;;;43.93;19.57;;;;;;;-2.72;88.67;100749.78;5114604;27;20291;-62
2023/12/09 02:09:21;;;;;;;41.30;18.00;;;;;;;-2.71;88.58;100741.41;5121276;27;20249;-61
2023/12/09 02:11:55;;;;;;;47.50;19.47;;;;;;;-2.75;88.75;100737.84;5114915;27;20635;-63
2023/12/09 02:14:33;;;;;;;45.53;19.43;;;;;;;-2.75;88.87;100734.47;5117062;27;20209;-62
2023/12/09 02:17:09;;;;;;;45.93;18.57;;;;;;;-2.75;89.15;100734.47;5113297;27;20736;-62
2023/12/09 02:19:37;;;;;;;43.03;17.23;;;;;;;-2.77;88.77;100726.81;5119086;27;20613;-63
2023/12/09 02:22:06;;;;;;;41.63;18.77;;;;;;;-2.75;89.19;100732.81;5123428;27;20638;-67
2023/12/09 02:24:36;;;;;;;52.63;20.07;;;;;;;-2.70;89.54;100717.91;5105842;27;20229;-61
2023/12/09 02:27:09;;;;;;;45.47;18.53;;;;;;;-2.74;88.94;100711.84;5107387;27;20229;-63
2023/12/09 02:29:47;;;;;;;39.83;18.20;;;;;;;-2.78;89.06;100709.94;5114805;27;20712;-63
2023/12/09 02:32:17;;;;;;;45.77;19.83;;;;;;;-2.73;89.78;100713.56;5109382;27;20257;-64
2023/12/09 02:34:46;;;;;;;50.50;19.93;;;;;;;-2.66;89.67;100717.28;5113044;27;20205;-63
2023/12/09 02:37:16;;;;;;;55.97;20.67;;;;;;;-2.56;90.01;100722.03;5104404;27;20697;-63
2023/12/09 02:39:46;;;;;;;50.97;19.47;;;;;;;-2.47;89.87;100712.41;5112869;27;20213;-62
2023/12/09 02:42:15;;;;;;;46.10;19.97;;;;;;;-2.44;88.86;100711.69;5118714;27;20694;-61
2023/12/09 02:44:43;;;;;;;47.43;19.63;;;;;;;-2.48;87.57;100714.84;5107121;27;20620;-63
2023/12/09 02:47:14;;;;;;;44.90;19.37;;;;;;;-2.55;88.20;100705.22;5114604;27;20655;-67
2023/12/09 02:49:42;;;;;;;44.73;17.03;;;;;;;-2.58;88.28;100713.50;5103350;27;20197;-63
2023/12/09 02:52:11;;;;;;;45.83;16.93;;;;;;;-2.61;88.48;100715.88;5106900;27;20288;-62
2023/12/09 02:54:39;;;;;;;50.13;17.77;;;;;;;-2.63;88.29;100709.88;5115153;27;20199;-63
2023/12/09 02:57:08;;;;;;;41.60;16.70;;;;;;;-2.64;88.67;100708.16;5100152;28;20627;-63
2023/12/09 02:59:36;;;;;;;50.30;19.03;;;;;;;-2.70;88.04;100710.34;5112786;27;20564;-63
2023/12/09 03:02:04;;;;;;;49.07;19.60;;;;;;;-2.72;89.07;100717.84;5107750;27;20196;-62
2023/12/09 03:04:32;;;;;;;51.93;19.47;;;;;;;-2.73;89.32;100718.59;5102061;27;20227;-63
2023/12/09 03:07:00;;;;;;;44.67;18.20;;;;;;;-2.73;89.47;100727.84;5113522;27;20192;-63
2023/12/09 03:09:28;;;;;;;47.53;18.63;;;;;;;-2.73;89.43;100727.84;5113274;27;20204;-62
2023/12/09 03:11:56;;;;;;;43.50;18.27;;;;;;;-2.72;89.41;100732.13;5117902;27;20300;-62
2023/12/09 03:14:25;;;;;;;43.20;18.53;;;;;;;-2.72;89.60;100715.31;5119248;27;20199;-64
2023/12/09 03:16:53;;;;;;;51.00;18.93;;;;;;;-2.73;89.79;100710.19;5110094;27;20239;-62
2023/12/09 03:19:21;;;;;;;47.73;18.50;;;;;;;-2.77;89.64;100698.19;5113398;27;20196;-64
2023/12/09 03:21:49;;;;;;;45.20;17.97;;;;;;;-2.76;89.75;100708.38;5100236;28;20660;-63
2023/12/09 03:24:17;;;;;;;42.83;17.30;;;;;;;-2.75;89.88;100712.63;5105698;27;20318;-62
2023/12/09 03:26:50;;;;;;;41.10;17.63;;;;;;;-2.77;89.63;100718.38;5107028;28;20200;-63
2023/12/09 03:29:18;;;;;;;47.37;18.13;;;;;;;-2.77;89.69;100708.28;5111224;27;20204;-66
2023/12/09 03:31:47;;;;;;;45.30;18.03;;;;;;;-2.76;89.87;100715.94;5112567;27;20249;-64
2023/12/09 03:34:15;;;;;;;44.53;19.13;;;;;;;-2.70;90.35;100716.25;5111885;28;20248;-64
2023/12/09 03:36:43;;;;;;;45.57;18.77;;;;;;;-2.68;89.73;100709.66;5112032;27;20531;-63
2023/12/09 03:39:11;;;;;;;49.50;19.10;;;;;;;-2.68;89.68;100706.25;5115161;27;20204;-64
2023/12/09 03:41:39;;;;;;;44.40;17.93;;;;;;;-2.67;89.52;100713.91;5111036;27;20200;-62
2023/12/09 03:44:07;;;;;;;46.57;18.63;;;;;;;-2.63;90.03;100709.88;5099789;27;20224;-63
2023/12/09 03:46:35;;;;;;;47.83;18.10;;;;;;;-2.58;89.92;100712.63;5101850;28;20569;-65
2023/12/09 03:49:04;;;;;;;49.33;18.37;;;;;;;-2.58;89.60;100705.94;5112882;27;20208;-65
2023/12/09 03:51:32;;;;;;;50.47;18.93;;;;;;;-2.58;89.46;100707.59;5112944;27;20235;-63
2023/12/09 03:54:00;;;;;;;47.70;19.30;;;;;;;-2.60;89.68;100711.69;5109493;28;20662;-64
2023/12/09 03:56:28;;;;;;;52.93;19.47;;;;;;;-2.61;89.49;100713.38;5117690;27;20568;-64
2023/12/09 03:58:56;;;;;;;52.23;19.10;;;;;;;-2.61;89.66;100707.44;5112823;28;20210;-63
2023/12/09 04:01:24;;;;;;;56.30;20.70;;;;;;;-2.53;89.75;100711.22;5104653;27;20674;-62
2023/12/09 04:03:53;;;;;;;44.17;18.67;;;;;;;-2.51;89.54;100707.97;5102496;27;20400;-63
2023/12/09 04:06:23;;;;;;;46.53;18.90;;;;;;;-2.47;89.99;100716.56;5116299;27;20241;-62
2023/12/09 04:08:51;;;;;;;48.33;19.17;;;;;;;-2.45;89.73;100720.06;5113019;28;20639;-64
2023/12/09 04:11:19;;;;;;;51.43;18.53;;;;;;;-2.39;89.64;100719.50;5109214;28;20200;-64
2023/12/09 04:13:47;;;;;;;47.27;19.40;;;;;;;-2.44;88.86;100712.56;5112258;27;20249;-63
2023/12/09 04:16:14;;;;;;;41.30;17.50;;;;;;;-2.51;88.68;100710.50;5112257;27;20728;-66
2023/12/09 04:18:42;;;;;;;46.27;18.57;;;;;;;-2.49;89.34;100715.66;5104606;27;20205;-63
2023/12/09 04:21:10;;;;;;;48.57;19.37;;;;;;;-2.48;88.87;100715.72;5107203;28;20658;-63
2023/12/09 04:23:41;;;;;;;46.63;19.20;;;;;;;-2.48;89.32;100719.91;5112293;28;20245;-64
2023/12/09 04:26:09;;;;;;;40.93;16.97;;;;;;;-2.54;89.25;100717.94;5113579;28;20219;-65
2023/12/09 04:28:37;;;;;;;49.87;18.50;;;;;;;-2.57;89.74;100719.44;5121803;28;20206;-64
2023/12/09 04:31:05;;;;;;;51.97;19.53;;;;;;;-2.62;89.43;100709.09;5123587;28;20199;-63
2023/12/09 04:33:33;;;;;;;46.03;17.70;;;;;;;-2.69;89.87;100704.50;5117508;28;20565;-64
2023/12/09 04:36:02;;;;;;;46.97;17.80;;;;;;;-2.72;89.81;100706.91;5109797;28;20304;-67
2023/12/09 04:38:30;;;;;;;46.80;19.47;;;;;;;-2.69;90.49;100697.84;5118576;27;20196;-65
2023/12/09 04:41:01;;;;;;;41.33;18.73;;;;;;;-2.66;90.84;100689.53;5116550;27;20539;-64
2023/12/09 04:43:29;;;;;;;40.10;18.83;;;;;;;-2.67;89.92;100686.16;5095576;27;20589;-64
2023/12/09 04:45:57;;;;;;;38.23;17.20;;;;;;;-2.69;90.21;100689.38;5113103;27;20706;-67
2023/12/09 04:48:25;;;;;;;45.37;17.57;;;;;;;-2.75;90.15;100672.28;5121504;27;20291;-64
2023/12/09 04:50:53;;;;;;;41.23;17.57;;;;;;;-2.73;90.71;100669.81;5120206;27;20202;-66
2023/12/09 04:53:21;;;;;;;43.77;18.67;;;;;;;-2.75;90.45;100673.94;5111890;27;20214;-65
2023/12/09 04:55:49;;;;;;;45.00;18.00;;;;;;;-2.74;90.41;100680.72;5105338;27;20274;-64
2023/12/09 04:58:18;;;;;;;41.43;17.20;;;;;;;-2.70;90.43;100677.56;5124306;27;20839;-65
2023/12/09 05:00:46;;;;;;;42.07;17.33;;;;;;;-2.63;90.35;100679.59;5108501;27;20723;-64
2023/12/09 05:03:14;;;;;;;41.37;18.07;;;;;;;-2.62;90.26;100668.72;5112915;27;20208;-64
2023/12/09 05:05:42;;;;;;;39.83;16.70;;;;;;;-2.61;89.90;100667.97;5120414;27;20243;-65
2023/12/09 05:08:10;;;;;;;50.60;19.47;;;;;;;-2.58;90.02;100663.03;5114763;27;20254;-69
2023/12/09 05:10:38;;;;;;;49.67;18.37;;;;;;;-2.62;89.62;100661.16;5124619;27;20199;-64
2023/12/09 05:13:06;;;;;;;48.77;18.27;;;;;;;-2.63;89.44;100654.38;5124833;27;20227;-65
2023/12/09 05:15:35;;;;;;;40.57;17.57;;;;;;;-2.61;89.53;100662.06;5115268;27;20219;-64
2023/12/09 05:18:03;;;;;;;40.77;16.60;;;;;;;-2.56;89.57;100661.47;5110531;27;20317;-65
2023/12/09 05:20:31;;;;;;;39.67;17.17;;;;;;;-2.52;90.14;100655.78;5109629;27;20200;-64
2023/12/09 05:22:59;;;;;;;41.80;16.23;;;;;;;-2.40;89.98;100657.19;5120526;27;20208;-65
2023/12/09 05:25:27;;;;;;;46.97;18.87;;;;;;;-2.35;90.12;100655.78;5124731;27;20219;-64
2023/12/09 05:27:55;;;;;;;43.83;18.60;;;;;;;-2.30;89.96;100646.78;5107879;27;20207;-65
2023/12/09 05:30:23;;;;;;;51.00;18.67;;;;;;;-2.27;89.03;100662.09;5114011;27;20295;-63
2023/12/09 05:32:52;;;;;;;46.50;17.97;;;;;;;-2.32;88.32;100661.88;5111545;27;20192;-67
2023/12/09 05:35:21;;;;;;;43.17;17.07;;;;;;;-2.36;88.74;100665.00;5115489;27;20200;-65
2023/12/09 05:37:48;;;;;;;37.70;18.30;;;;;;;-2.41;88.47;100655.47;5104324;27;20269;-63
2023/12/09 05:40:17;;;;;;;44.00;16.33;;;;;;;-2.47;88.75;100654.38;5113332;27;20204;-62
2023/12/09 05:42:45;;;;;;;43.43;18.03;;;;;;;-2.48;88.78;100656.81;5118228;27;20656;-61
2023/12/09 05:45:13;;;;;;;44.60;18.27;;;;;;;-2.48;89.13;100661.88;5112694;27;20222;-62
2023/12/09 05:47:41;;;;;;;41.23;17.57;;;;;;;-2.49;89.25;100658.47;5118995;27;20206;-63
2023/12/09 05:50:11;;;;;;;41.03;17.70;;;;;;;-2.50;89.39;100654.22;5114802;27;20197;-62
2023/12/09 05:52:38;;;;;;;46.17;18.20;;;;;;;-2.48;89.24;100650.09;5107127;27;20210;-65
2023/12/09 05:55:06;;;;;;;42.97;17.60;;;;;;;-2.48;89.32;100647.59;5116007;27;20527;-62
2023/12/09 05:57:34;;;;;;;42.50;17.93;;;;;;;-2.54;89.08;100654.88;5121879;27;20199;-64
2023/12/09 06:00:02;;;;;;;40.80;16.30;;;;;;;-2.56;89.13;100655.56;5108373;27;20227;-64
2023/12/09 06:02:31;;;;;;;40.53;17.23;;;;;;;-2.56;89.47;100655.56;5119061;27;20249;-64
2023/12/09 06:04:59;;;;;;;42.97;17.80;;;;;;;-2.59;89.66;100655.41;5109015;27;20208;-62
2023/12/09 06:07:28;;;;;;;49.67;18.27;;;;;;;-2.58;89.92;100650.44;5113780;27;20200;-63
2023/12/09 06:09:56;;;;;;;49.30;18.73;;;;;;;-2.58;89.56;100645.38;5117170;27;20199;-64
2023/12/09 06:12:24;;;;;;;46.03;18.53;;;;;;;-2.62;89.49;100635.94;5117048;27;20203;-63
2023/12/09 06:14:53;;;;;;;49.40;18.20;;;;;;;-2.62;89.92;100635.94;5116511;27;20198;-62
2023/12/09 06:17:21;;;;;;;44.33;18.80;;;;;;;-2.61;90.58;100635.16;5111558;27;20296;-67
2023/12/09 06:19:49;;;;;;;42.60;16.93;;;;;;;-2.59;90.11;100637.75;5106007;27;20330;-63
2023/12/09 06:22:17;;;;;;;54.73;19.50;;;;;;;-2.57;90.03;100629.47;5113721;27;20196;-65
2023/12/09 06:24:46;;;;;;;44.37;17.20;;;;;;;-2.66;89.84;100623.97;5118161;27;20236;-63
2023/12/09 06:27:14;;;;;;;51.10;19.47;;;;;;;-2.64;89.83;100624.06;5116592;27;20207;-64
2023/12/09 06:29:44;;;;;;;45.87;19.47;;;;;;;-2.70;89.77;100624.59;5122690;27;20203;-62
2023/12/09 06:32:13;;;;;;;52.23;18.63;;;;;;;-2.69;90.19;100633.88;5112155;27;20700;-64
2023/12/09 06:34:41;;;;;;;47.53;18.60;;;;;;;-2.73;90.39;100624.44;5110849;27;20325;-63
2023/12/09 06:37:09;;;;;;;40.87;18.27;;;;;;;-2.71;90.84;100620.34;5113724;27;20199;-64
2023/12/09 06:39:38;;;;;;;39.97;17.33;;;;;;;-2.65;90.78;100623.19;5106977;27;20200;-63
2023/12/09 06:42:07;;;;;;;41.67;16.87;;;;;;;-2.65;90.14;100625.72;5128652;27;20203;-63
2023/12/09 06:44:35;;;;;;;48.93;17.27;;;;;;;-2.69;90.02;100619.66;5117477;27;20585;-67
2023/12/09 06:47:03;;;;;;;59.03;17.87;;;;;;;-2.69;90.49;100627.22;5116384;27;20224;-63
2023/12/09 06:49:31;;;;;;;49.47;19.27;;;;;;;-2.67;90.89;100627.28;5109450;27;20201;-65
2023/12/09 06:51:59;;;;;;;46.97;16.57;;;;;;;-2.62;90.66;100622.47;5115234;27;20669;-65
2023/12/09 06:54:27;;;;;;;48.60;17.83;;;;;;;-2.63;90.38;100616.56;5112138;27;20211;-64
2023/12/09 06:56:56;;;;;;;49.13;17.47;;;;;;;-2.65;90.48;100615.63;5118148;27;20668;-64
2023/12/09 06:59:26;;;;;;;49.20;18.67;;;;;;;-2.67;90.38;100617.19;5120827;27;20207;-68
2023/12/09 07:01:56;;;;;;;46.43;18.23;;;;;;;-2.64;90.48;100614.81;5115335;27;20210;-64
2023/12/09 07:04:24;;;;;;;49.57;19.20;;;;;;;-2.65;90.53;100605.53;5107570;27;20540;-64
2023/12/09 07:06:52;;;;;;;49.67;19.87;;;;;;;-2.63;90.76;100611.50;5111020;27;20297;-63
2023/12/09 07:09:20;;;;;;;49.03;18.50;;;;;;;-2.63;90.03;100619.06;5105402;27;20264;-63
2023/12/09 07:11:48;;;;;;;51.83;18.80;;;;;;;-2.61;90.48;100622.56;5108072;27;20268;-64
2023/12/09 07:14:30;;;;;;;54.63;19.17;;;;;;;-2.59;90.84;100620.97;5100422;27;20659;-63
2023/12/09 07:16:58;;;;;;;46.20;17.10;;;;;;;-2.60;90.51;100619.22;5113600;27;20323;-66
2023/12/09 07:19:26;;;;;;;44.57;18.47;;;;;;;-2.63;90.47;100616.56;5102470;28;20196;-64
2023/12/09 07:21:55;;;;;;;50.30;16.67;;;;;;;-2.65;90.48;100613.09;5110629;27;20204;-63
2023/12/09 07:24:22;;;;;;;60.67;21.33;;;;;;;-2.64;90.66;100616.50;5116065;27;20204;-65
2023/12/09 07:26:50;;;;;;;48.57;19.03;;;;;;;-2.68;90.48;100615.47;5105028;27;20216;-65
2023/12/09 07:29:19;;;;;;;41.50;16.40;;;;;;;-2.70;90.67;100617.88;5113002;28;20706;-63
2023/12/09 07:31:48;;;;;;;51.37;19.27;;;;;;;-2.64;90.97;100616.50;5106901;28;20208;-62
2023/12/09 07:34:18;;;;;;;51.23;20.13;;;;;;;-2.64;90.72;100629.97;5110072;28;20222;-65
2023/12/09 07:36:46;;;;;;;46.17;18.57;;;;;;;-2.58;91.00;100625.19;5109056;27;20199;-63
2023/12/09 07:39:14;;;;;;;53.80;19.33;;;;;;;-2.52;90.94;100620.47;5116372;27;20566;-64
2023/12/09 07:41:43;;;;;;;47.27;20.33;;;;;;;-2.45;91.35;100619.13;5106081;27;20568;-64
2023/12/09 07:44:10;;;;;;;50.10;19.83;;;;;;;-2.45;90.20;100609.91;5119308;27;20213;-64
2023/12/09 07:46:38;;;;;;;49.57;19.83;;;;;;;-2.45;90.17;100607.38;5109403;27;20751;-64
2023/12/09 07:49:07;;;;;;;50.13;19.23;;;;;;;-2.40;90.29;100622.72;5104685;27;20208;-66
2023/12/09 07:51:36;;;;;;;43.37;18.37;;;;;;;-2.37;89.98;100604.38;5108724;28;20228;-66
2023/12/09 07:54:04;;;;;;;50.17;19.60;;;;;;;-2.34;90.06;100622.19;5119531;27;20226;-66
2023/12/09 07:56:34;;;;;;;47.63;20.23;;;;;;;-2.29;90.56;100621.59;5105424;27;20196;-65
2023/12/09 07:59:02;;;;;;;55.30;20.60;;;;;;;-2.22;90.42;100615.22;5106679;28;20652;-68
2023/12/09 08:01:30;;;;;;;46.60;18.50;;;;;;;-2.13;90.24;100622.38;5114010;27;20197;-64
2023/12/09 08:03:58;;;;;;;45.20;20.60;;;;;;;-2.10;89.44;100622.50;5117548;27;20196;-66
2023/12/09 08:06:28;;;;;;;46.77;20.57;;;;;;;-2.07;89.57;100615.09;5114201;27;20583;-66
2023/12/09 08:08:56;;;;;;;51.13;19.13;;;;;;;-2.04;88.73;100623.66;5110908;28;20608;-66
2023/12/09 08:11:24;;;;;;;57.30;21.77;;;;;;;-2.04;88.62;100617.75;5112832;28;20253;-66
2023/12/09 08:13:52;;;;;;;49.73;20.70;;;;;;;-2.05;88.90;100616.03;5108421;28;20204;-67
2023/12/09 08:16:20;;;;;;;52.47;20.27;;;;;;;-2.06;89.09;100610.13;5108539;27;20610;-67
2023/12/09 08:18:48;;;;;;;50.47;20.63;;;;;;;-2.08;88.51;100610.84;5109210;27;20561;-66
2023/12/09 08:21:16;;;;;;;55.80;20.53;;;;;;;-2.04;89.37;100613.56;5100261;27;20328;-67
2023/12/09 08:23:46;;;;;;;51.77;19.30;;;;;;;-1.99;89.28;100612.16;5106427;28;20204;-66
2023/12/09 08:26:17;;;;;;;48.37;18.97;;;;;;;-1.96;89.14;100602.16;5102418;28;20632;-64
2023/12/09 08:28:46;;;;;;;52.97;21.27;;;;;;;-1.95;88.90;100603.94;5107304;28;20275;-67
2023/12/09 08:31:14;;;;;;;48.37;21.03;;;;;;;-1.91;89.17;100606.56;5116119;28;20200;-66
2023/12/09 08:33:42;;;;;;;52.87;20.27;;;;;;;-1.87;89.11;100600.91;5109581;28;20241;-63
2023/12/09 08:36:10;;;;;;;48.43;20.73;;;;;;;-1.84;88.74;100603.53;5108144;28;20216;-62
2023/12/09 08:38:38;;;;;;;56.73;21.40;;;;;;;-1.82;88.63;100599.44;5112134;28;20200;-62
2023/12/09 08:41:07;;;;;;;49.53;20.60;;;;;;;-1.80;88.83;100597.88;5113287;28;20643;-62
2023/12/09 08:43:35;;;;;;;57.27;22.23;;;;;;;-1.74;88.88;100600.66;5117194;28;20226;-63
2023/12/09 08:46:03;;;;;;;52.23;21.70;;;;;;;-1.69;88.38;100596.72;5108530;27;20204;-62
2023/12/09 08:48:31;;;;;;;53.87;21.60;;;;;;;-1.66;88.66;100604.41;5109561;28;20195;-63
2023/12/09 08:51:00;;;;;;;55.57;21.60;;;;;;;-1.62;88.04;100603.78;5105449;28;20284;-63
2023/12/09 08:53:28;;;;;;;57.77;20.17;;;;;;;-1.57;88.10;100596.41;5105662;28;20200;-61
2023/12/09 08:55:56;;;;;;;56.80;20.97;;;;;;;-1.52;88.25;100597.47;5105470;28;20212;-62
2023/12/09 08:58:25;;;;;;;50.77;20.97;;;;;;;-1.51;87.55;100595.03;5109750;28;20204;-62
2023/12/09 09:00:53;;;;;;;57.93;20.00;;;;;;;-1.52;87.13;100585.69;5100924;28;20243;-63
2023/12/09 09:03:21;;;;;;;56.93;20.90;;;;;;;-1.54;87.60;100577.19;5101951;28;20211;-63
2023/12/09 09:05:49;;;;;;;43.87;19.20;;;;;;;-1.50;87.54;100568.97;5109036;28;20220;-63
2023/12/09 09:08:17;;;;;;;50.17;20.37;;;;;;;-1.49;86.96;100567.28;5107232;28;20208;-63
2023/12/09 09:10:46;;;;;;;53.10;20.70;;;;;;;-1.53;87.41;100563.75;5115870;28;20704;-61
2023/12/09 09:13:14;;;;;;;56.07;21.33;;;;;;;-1.48;87.90;100562.28;5114964;28;20200;-62
2023/12/09 09:15:43;;;;;;;49.23;21.17;;;;;;;-1.41;87.81;100555.00;5110876;28;20239;-61
2023/12/09 09:18:11;;;;;;;49.63;20.77;;;;;;;-1.41;86.96;100543.22;5118325;28;20246;-61
2023/12/09 09:20:42;;;;;;;54.23;21.83;;;;;;;-1.41;87.15;100539.81;5109838;28;20211;-62
2023/12/09 09:23:10;;;;;;;54.13;21.37;;;;;;;-1.39;87.48;100546.69;5111544;27;20208;-58
2023/12/09 09:25:38;;;;;;;48.90;20.83;;;;;;;-1.37;87.05;100539.16;5111168;27;20204;-60
2023/12/09 09:28:06;;;;;;;53.67;21.57;;;;;;;-1.37;87.58;100545.09;5115669;27;20215;-62
2023/12/09 09:30:34;;;;;;;59.10;22.73;;;;;;;-1.38;87.60;100530.72;5111337;27;20204;-60
2023/12/09 09:33:03;;;;;;;54.30;22.00;;;;;;;-1.33;87.48;100528.38;5113735;27;20202;-61
2023/12/09 09:35:33;;;;;;;53.30;21.00;;;;;;;-1.29;87.51;100528.63;5122907;27;20565;-62
2023/12/09 09:38:01;;;;;;;54.13;21.10;;;;;;;-1.28;87.32;100525.28;5112274;27;20208;-60
2023/12/09 09:40:29;;;;;;;55.40;22.37;;;;;;;-1.25;87.25;100522.88;5117503;27;20711;-62
2023/12/09 09:42:59;;;;;;;50.17;21.03;;;;;;;-1.19;86.98;100523.94;5112466;27;20269;-60
2023/12/09 09:45:28;;;;;;;63.87;23.23;;;;;;;-1.13;87.44;100514.09;5118383;27;20532;-62
2023/12/09 09:48:05;;;;;;;58.60;23.23;;;;;;;-1.10;86.78;100504.13;5105330;27;20212;-62
2023/12/09 09:50:39;;;;;;;58.70;23.03;;;;;;;-1.08;86.92;100513.47;5122627;27;20610;-61
2023/12/09 09:53:08;;;;;;;58.67;22.67;;;;;;;-1.10;86.50;100504.97;5117329;27;20200;-60
2023/12/09 09:55:40;;;;;;;54.00;21.60;;;;;;;-1.02;87.17;100502.78;5119499;27;20657;-60
2023/12/09 09:58:08;;;;;;;47.03;21.60;;;;;;;-0.99;86.36;100503.78;5120151;27;20651;-61
2023/12/09 10:00:36;;;;;;;53.17;21.53;;;;;;;-0.95;86.20;100503.91;5118249;27;20201;-63
2023/12/09 10:03:06;;;;;;;54.57;21.57;;;;;;;-0.89;86.64;100499.09;5102344;27;20200;-63
2023/12/09 10:05:34;;;;;;;57.13;22.17;;;;;;;-0.82;86.47;100503.59;5116578;27;20223;-60
2023/12/09 10:08:02;;;;;;;53.60;21.60;;;;;;;-0.77;86.16;100492.03;5121208;27;20211;-62
2023/12/09 10:10:32;;;;;;;50.43;21.23;;;;;;;-0.78;85.80;100490.28;5110594;27;20201;-62
2023/12/09 10:13:01;;;;;;;57.07;21.70;;;;;;;-0.76;85.36;100488.69;5100641;28;20332;-62
2023/12/09 10:15:29;;;;;;;60.13;22.87;;;;;;;-0.73;85.68;100487.16;5113684;28;20200;-65
2023/12/09 10:18:01;;;;;;;52.70;22.30;;;;;;;-0.74;85.57;100479.47;5113489;28;20288;-64
2023/12/09 10:20:34;;;;;;;51.37;21.53;;;;;;;-0.75;85.21;100476.09;5107493;27;20219;-64
2023/12/09 10:23:02;;;;;;;53.17;20.93;;;;;;;-0.80;85.40;100474.19;5110856;27;20357;-66
2023/12/09 10:25:30;;;;;;;48.53;21.03;;;;;;;-0.79;85.88;100475.91;5117191;27;20615;-64
2023/12/09 10:27:59;;;;;;;47.20;21.30;;;;;;;-0.82;86.20;100470.72;5106312;27;20247;-66
2023/12/09 10:30:28;;;;;;;46.53;20.83;;;;;;;-0.78;86.23;100467.50;5105652;27;20245;-64
2023/12/09 10:32:57;;;;;;;51.10;21.03;;;;;;;-0.76;85.61;100460.84;5117191;27;20729;-65
2023/12/09 10:35:28;;;;;;;51.33;21.93;;;;;;;-0.68;86.19;100456.97;5113553;28;20279;-62
2023/12/09 10:38:01;;;;;;;52.77;22.17;;;;;;;-0.55;86.20;100460.84;5108560;28;20651;-62
2023/12/09 10:40:29;;;;;;;51.00;21.33;;;;;;;-0.45;85.75;100457.88;5113065;27;20203;-62
2023/12/09 10:42:57;;;;;;;50.17;21.30;;;;;;;-0.40;84.95;100456.41;5113259;28;20230;-63
2023/12/09 10:45:25;;;;;;;53.40;23.23;;;;;;;-0.32;85.08;100455.00;5098226;28;20232;-62
2023/12/09 10:47:53;;;;;;;48.80;21.83;;;;;;;-0.35;83.97;100449.81;5095240;27;20221;-62
2023/12/09 10:50:22;;;;;;;51.70;22.50;;;;;;;-0.36;83.88;100447.25;5116199;27;20192;-62
2023/12/09 10:52:50;;;;;;;50.37;21.73;;;;;;;-0.38;84.32;100457.28;5113105;28;20211;-62
2023/12/09 10:55:19;;;;;;;53.50;23.23;;;;;;;-0.36;84.54;100447.25;5113308;28;20243;-63
2023/12/09 10:57:50;;;;;;;45.77;21.27;;;;;;;-0.41;84.04;100434.38;5104223;28;20698;-65
2023/12/09 11:00:20;;;;;;;49.30;22.20;;;;;;;-0.38;84.16;100433.66;5115230;27;20199;-62
2023/12/09 11:02:50;;;;;;;50.53;21.57;;;;;;;-0.38;84.26;100431.13;5120220;27;20242;-66
2023/12/09 11:05:19;;;;;;;53.43;22.80;;;;;;;-0.41;84.65;100428.47;5116556;27;20283;-66
2023/12/09 11:07:48;;;;;;;45.73;20.77;;;;;;;-0.38;84.74;100423.53;5104829;28;20220;-65
2023/12/09 11:10:16;;;;;;;41.80;19.13;;;;;;;-0.37;84.17;100417.66;5109813;28;20550;-65
2023/12/09 11:12:48;;;;;;;48.33;21.17;;;;;;;-0.36;84.30;100417.72;5107097;28;20563;-65
2023/12/09 11:15:22;;;;;;;47.70;20.60;;;;;;;-0.37;83.82;100430.31;5112586;28;20211;-65